Time;durP1;ratioP1;P1;durP2;ratioP2;P2;SDS_P1;SDS_P2;PMS_P1;PMS_P2;Temp;Humidity;BMP_temperature;BMP_pressure;BME280_temperature;BME280_humidity;BME280_pressure;Samples;Min_cycle;Max_cycle;Signal;HPM_P1;HPM_P2
2022/03/10 00:00:29;;;;;;;;;;;-0.90;99.90;;;;;;4193008;28;19928;-47
2022/03/10 00:02:31;;;;;;;;;;;-1.00;99.90;;;;;;4193808;28;20240;-48
2022/03/10 00:04:34;;;;;;;;;;;-1.20;99.90;;;;;;4193145;28;19939;-48
2022/03/10 00:06:36;;;;;;;;;;;-1.40;99.90;;;;;;4193254;28;19932;-48
2022/03/10 00:08:38;;;;;;;;;;;-1.50;99.90;;;;;;4192823;28;19929;-48
2022/03/10 00:10:40;;;;;;;;;;;-1.60;99.90;;;;;;4192667;28;19983;-48
2022/03/10 00:12:49;;;;;;;;;;;-1.60;99.90;;;;;;4193300;28;20369;-49
2022/03/10 00:14:51;;;;;;;;;;;-1.40;99.90;;;;;;4193299;28;20342;-49
2022/03/10 00:16:52;;;;;;;;;;;-1.30;99.90;;;;;;4193331;28;19967;-48
2022/03/10 00:18:54;;;;;;;;;;;-1.20;99.90;;;;;;4192298;28;19947;-51
2022/03/10 00:20:57;;;;;;;;;;;-1.20;99.90;;;;;;4193021;28;19928;-50
2022/03/10 00:22:59;;;;;;;;;;;-1.10;99.90;;;;;;4193155;28;19928;-48
2022/03/10 00:25:01;;;;;;;;;;;-1.00;99.90;;;;;;4193022;28;19925;-49
2022/03/10 00:27:02;;;;;;;;;;;-1.10;99.90;;;;;;4192985;28;19924;-48
2022/03/10 00:29:05;;;;;;;;;;;-1.10;99.90;;;;;;4194084;28;19924;-49
2022/03/10 00:31:07;;;;;;;;;;;-1.30;99.90;;;;;;4196388;28;19924;-49
2022/03/10 00:33:09;;;;;;;;;;;-1.30;99.90;;;;;;4196490;28;19983;-48
2022/03/10 00:35:14;;;;;;;;;;;-1.30;99.90;;;;;;4196056;28;20359;-47
2022/03/10 00:37:16;;;;;;;;;;;-1.50;99.90;;;;;;4196369;28;19973;-49
2022/03/10 00:39:17;;;;;;;;;;;-1.50;99.90;;;;;;4196124;28;19925;-48
2022/03/10 00:41:20;;;;;;;;;;;-1.50;99.90;;;;;;4196305;28;19986;-49
2022/03/10 00:43:23;;;;;;;;;;;-1.50;99.90;;;;;;4195956;28;19947;-49
2022/03/10 00:45:27;;;;;;;;;;;-1.40;99.90;;;;;;4195790;28;20293;-48
2022/03/10 00:47:30;;;;;;;;;;;-1.50;99.90;;;;;;4195753;28;20611;-51
2022/03/10 00:49:32;;;;;;;;;;;-1.50;99.90;;;;;;4195979;28;20069;-49
2022/03/10 00:51:34;;;;;;;;;;;-1.40;99.90;;;;;;4187708;28;20350;-47
2022/03/10 00:53:36;;;;;;;;;;;-1.50;99.90;;;;;;4196163;28;19940;-48
2022/03/10 00:55:37;;;;;;;;;;;-1.40;99.90;;;;;;4195497;28;20384;-48
2022/03/10 00:57:41;;;;;;;;;;;-1.50;99.90;;;;;;4196102;28;19978;-50
2022/03/10 00:59:43;;;;;;;;;;;-1.40;99.90;;;;;;4187006;28;19925;-48
2022/03/10 01:01:45;;;;;;;;;;;-1.50;99.90;;;;;;4192503;28;19977;-49
2022/03/10 01:03:47;;;;;;;;;;;-1.60;99.90;;;;;;4195661;28;19964;-50
2022/03/10 01:05:49;;;;;;;;;;;-1.60;99.90;;;;;;4195932;28;19962;-49
2022/03/10 01:07:51;;;;;;;;;;;-1.70;99.90;;;;;;4196048;28;19932;-50
2022/03/10 01:09:53;;;;;;;;;;;-1.60;99.90;;;;;;4195572;28;19959;-51
2022/03/10 01:11:55;;;;;;;;;;;-1.50;99.90;;;;;;4195477;28;19979;-48
2022/03/10 01:13:57;;;;;;;;;;;-1.50;99.90;;;;;;4195374;28;19925;-49
2022/03/10 01:15:59;;;;;;;;;;;-1.40;99.90;;;;;;4195865;28;20388;-51
2022/03/10 01:18:01;;;;;;;;;;;-1.40;99.90;;;;;;4194961;28;19986;-48
2022/03/10 01:20:04;;;;;;;;;;;-1.40;99.90;;;;;;4195309;28;20023;-50
2022/03/10 01:22:07;;;;;;;;;;;-1.30;99.90;;;;;;4195712;28;19933;-50
2022/03/10 01:24:09;;;;;;;;;;;-1.20;99.90;;;;;;4194842;28;19974;-50
2022/03/10 01:26:11;;;;;;;;;;;-1.20;99.90;;;;;;4195519;28;20015;-49
2022/03/10 01:28:13;;;;;;;;;;;-1.30;99.90;;;;;;4195539;28;20324;-49
2022/03/10 01:30:15;;;;;;;;;;;-1.50;99.90;;;;;;4193624;28;19998;-49
2022/03/10 01:32:17;;;;;;;;;;;-1.40;99.90;;;;;;4195385;28;19929;-48
2022/03/10 01:34:19;;;;;;;;;;;-1.50;99.90;;;;;;4195193;28;19925;-48
2022/03/10 01:36:21;;;;;;;;;;;-1.70;99.90;;;;;;4195289;28;19969;-50
2022/03/10 01:38:22;;;;;;;;;;;-1.90;99.90;;;;;;4195050;28;20028;-49
2022/03/10 01:40:24;;;;;;;;;;;-2.20;99.90;;;;;;4181372;28;20269;-48
2022/03/10 01:42:26;;;;;;;;;;;-2.30;99.90;;;;;;4195478;28;19932;-51
2022/03/10 01:44:28;;;;;;;;;;;-2.30;99.90;;;;;;4195206;28;19932;-50
2022/03/10 01:46:30;;;;;;;;;;;-2.30;99.90;;;;;;4194913;28;19935;-50
2022/03/10 01:48:32;;;;;;;;;;;-2.30;99.90;;;;;;4194913;28;20319;-49
2022/03/10 01:50:34;;;;;;;;;;;-2.40;99.90;;;;;;4193498;28;19929;-48
2022/03/10 01:52:37;;;;;;;;;;;-2.40;99.90;;;;;;4194844;28;19978;-51
2022/03/10 01:54:42;;;;;;;;;;;-2.50;99.90;;;;;;4195022;28;19932;-49
2022/03/10 01:56:44;;;;;;;;;;;-2.60;99.90;;;;;;4195070;28;19936;-49
2022/03/10 01:58:47;;;;;;;;;;;-2.50;99.90;;;;;;4192533;28;19978;-51
2022/03/10 02:00:49;;;;;;;;;;;-2.50;99.90;;;;;;4195264;28;19929;-49
2022/03/10 02:02:51;;;;;;;;;;;-2.60;99.90;;;;;;4194634;28;20026;-50
2022/03/10 02:04:53;;;;;;;;;;;-2.60;99.90;;;;;;4194772;28;20019;-50
2022/03/10 02:06:55;;;;;;;;;;;-2.60;99.90;;;;;;4194409;28;19928;-49
2022/03/10 02:11:18;;;;;;;;;;;-2.70;99.90;;;;;;4194739;28;20392;-50
2022/03/10 02:13:19;;;;;;;;;;;-2.70;99.90;;;;;;4194789;28;19982;-50
2022/03/10 02:17:43;;;;;;;;;;;-2.60;99.90;;;;;;4194264;28;19968;-49
2022/03/10 02:19:51;;;;;;;;;;;-2.50;99.90;;;;;;4195628;28;19928;-49
2022/03/10 02:21:54;;;;;;;;;;;-2.30;99.90;;;;;;4181970;28;19993;-51
2022/03/10 02:23:56;;;;;;;;;;;-2.20;99.90;;;;;;4194402;28;19968;-50
2022/03/10 02:25:59;;;;;;;;;;;-2.10;99.90;;;;;;4194463;28;19939;-50
2022/03/10 02:28:01;;;;;;;;;;;-2.10;99.90;;;;;;4194282;28;20427;-48
2022/03/10 02:30:03;;;;;;;;;;;-2.20;99.90;;;;;;4194447;28;19978;-49
2022/03/10 02:32:05;;;;;;;;;;;-2.30;99.90;;;;;;4194374;28;20414;-48
2022/03/10 02:34:09;;;;;;;;;;;-2.30;99.90;;;;;;4194465;28;20415;-49
2022/03/10 02:36:11;;;;;;;;;;;-2.40;99.90;;;;;;4194511;28;19974;-50
2022/03/10 02:38:17;;;;;;;;;;;-2.40;99.90;;;;;;4194133;28;19967;-49
2022/03/10 02:40:20;;;;;;;;;;;-2.40;99.90;;;;;;4194295;28;20023;-50
2022/03/10 02:42:22;;;;;;;;;;;-2.30;99.90;;;;;;4194350;28;19924;-50
2022/03/10 02:44:24;;;;;;;;;;;-2.40;99.90;;;;;;4193867;28;19989;-50
2022/03/10 02:46:25;;;;;;;;;;;-2.40;99.90;;;;;;4193697;28;19925;-51
2022/03/10 02:48:27;;;;;;;;;;;-2.40;99.90;;;;;;4194147;28;20377;-51
2022/03/10 02:50:29;;;;;;;;;;;-2.60;99.90;;;;;;4194258;28;19978;-50
2022/03/10 02:52:31;;;;;;;;;;;-2.70;99.90;;;;;;4193063;28;19967;-50
2022/03/10 02:54:33;;;;;;;;;;;-2.60;99.90;;;;;;4194110;28;20149;-47
2022/03/10 02:56:35;;;;;;;;;;;-2.60;99.90;;;;;;4192536;28;19924;-49
2022/03/10 02:58:37;;;;;;;;;;;-2.60;99.90;;;;;;4194030;28;20281;-50
2022/03/10 03:00:39;;;;;;;;;;;-2.80;99.90;;;;;;4193892;28;19931;-50
2022/03/10 03:02:41;;;;;;;;;;;-2.90;99.90;;;;;;4194159;28;20408;-49
2022/03/10 03:04:43;;;;;;;;;;;-2.90;99.90;;;;;;4193724;28;19971;-50
2022/03/10 03:06:45;;;;;;;;;;;-2.80;99.90;;;;;;4194058;28;20266;-50
2022/03/10 03:08:47;;;;;;;;;;;-2.70;99.90;;;;;;4193907;28;19932;-50
2022/03/10 03:10:49;;;;;;;;;;;-2.80;99.90;;;;;;4193648;28;19971;-51
2022/03/10 03:12:51;;;;;;;;;;;-2.70;99.90;;;;;;4193599;28;20019;-48
2022/03/10 03:14:54;;;;;;;;;;;-2.80;99.90;;;;;;4193763;28;19955;-48
2022/03/10 03:16:56;;;;;;;;;;;-2.70;99.90;;;;;;4194237;28;19925;-51
2022/03/10 03:18:58;;;;;;;;;;;-2.70;99.90;;;;;;4191817;28;20027;-50
2022/03/10 03:21:00;;;;;;;;;;;-2.60;99.90;;;;;;4193561;28;19936;-51
2022/03/10 03:23:02;;;;;;;;;;;-2.70;99.90;;;;;;4193683;28;19935;-50
2022/03/10 03:25:04;;;;;;;;;;;-2.70;99.90;;;;;;4192047;28;19925;-49
2022/03/10 03:27:06;;;;;;;;;;;-2.70;99.90;;;;;;4186945;28;19968;-47
2022/03/10 03:29:08;;;;;;;;;;;-2.80;99.90;;;;;;4193389;28;19950;-50
2022/03/10 03:31:10;;;;;;;;;;;-2.90;99.90;;;;;;4193707;28;19928;-49
2022/03/10 03:33:12;;;;;;;;;;;-3.00;99.90;;;;;;4193736;28;19931;-50
2022/03/10 03:35:14;;;;;;;;;;;-2.90;99.90;;;;;;4178689;28;19982;-51
2022/03/10 03:37:16;;;;;;;;;;;-2.90;99.90;;;;;;4193565;28;19928;-50
2022/03/10 03:39:18;;;;;;;;;;;-2.80;99.90;;;;;;4192398;28;19929;-49
2022/03/10 03:41:24;;;;;;;;;;;-2.90;99.90;;;;;;4193625;28;19992;-51
2022/03/10 03:43:29;;;;;;;;;;;-2.80;99.90;;;;;;4207067;28;19924;-51
2022/03/10 03:45:31;;;;;;;;;;;-2.80;99.90;;;;;;4193768;28;20474;-49
2022/03/10 03:47:33;;;;;;;;;;;-2.80;99.90;;;;;;4193245;28;19932;-50
2022/03/10 03:49:35;;;;;;;;;;;-2.90;99.90;;;;;;4193290;28;19936;-50
2022/03/10 03:51:37;;;;;;;;;;;-3.00;99.90;;;;;;4193686;28;19932;-50
2022/03/10 03:53:39;;;;;;;;;;;-3.00;99.90;;;;;;4192665;28;20023;-49
2022/03/10 03:55:41;;;;;;;;;;;-3.00;99.90;;;;;;4193557;28;20006;-50
2022/03/10 03:57:45;;;;;;;;;;;-2.80;99.90;;;;;;4191658;28;20026;-50
2022/03/10 03:59:47;;;;;;;;;;;-2.80;99.90;;;;;;4193007;28;19944;-52
2022/03/10 04:01:49;;;;;;;;;;;-2.90;99.90;;;;;;4192165;28;19937;-49
2022/03/10 04:03:51;;;;;;;;;;;-2.90;99.90;;;;;;4193289;28;19935;-49
2022/03/10 04:05:53;;;;;;;;;;;-2.90;99.90;;;;;;4196033;28;19935;-51
2022/03/10 04:07:55;;;;;;;;;;;-2.80;99.90;;;;;;4195857;28;19925;-52
2022/03/10 04:09:57;;;;;;;;;;;-2.90;99.90;;;;;;4195913;28;19978;-49
2022/03/10 04:12:00;;;;;;;;;;;-3.00;99.90;;;;;;4196065;28;19925;-52
2022/03/10 04:14:02;;;;;;;;;;;-3.20;99.90;;;;;;4179273;28;19929;-51
2022/03/10 04:16:06;;;;;;;;;;;-3.30;99.90;;;;;;4195933;28;19951;-48
2022/03/10 04:18:10;;;;;;;;;;;-3.50;99.90;;;;;;4195212;28;19928;-49
2022/03/10 04:20:13;;;;;;;;;;;-3.60;99.90;;;;;;4196365;28;19928;-46
2022/03/10 04:22:15;;;;;;;;;;;-3.70;99.90;;;;;;4196758;28;19924;-46
2022/03/10 04:24:17;;;;;;;;;;;-3.70;99.90;;;;;;4196162;28;19962;-50
2022/03/10 04:26:19;;;;;;;;;;;-3.80;99.90;;;;;;4196669;28;19932;-47
2022/03/10 04:28:24;;;;;;;;;;;-3.80;99.90;;;;;;4196061;28;20424;-49
2022/03/10 04:30:26;;;;;;;;;;;-3.80;99.90;;;;;;4196400;28;19932;-48
2022/03/10 04:32:28;;;;;;;;;;;-3.80;99.90;;;;;;4194884;28;19929;-51
2022/03/10 04:34:30;;;;;;;;;;;-3.90;99.90;;;;;;4194503;28;20355;-48
2022/03/10 04:36:32;;;;;;;;;;;-3.90;99.90;;;;;;4196531;28;19928;-50
2022/03/10 04:38:34;;;;;;;;;;;-3.90;99.90;;;;;;4195738;28;19925;-51
2022/03/10 04:40:37;;;;;;;;;;;-3.90;99.90;;;;;;4196100;28;19925;-47
2022/03/10 04:42:39;;;;;;;;;;;-3.80;99.90;;;;;;4195962;28;19929;-49
2022/03/10 04:44:41;;;;;;;;;;;-3.80;99.90;;;;;;4195998;28;19929;-49
2022/03/10 04:46:43;;;;;;;;;;;-3.80;99.90;;;;;;4195836;28;19935;-49
2022/03/10 04:48:45;;;;;;;;;;;-3.80;99.90;;;;;;4195650;28;19972;-48
2022/03/10 04:50:47;;;;;;;;;;;-3.80;99.90;;;;;;4196116;28;19986;-47
2022/03/10 04:52:49;;;;;;;;;;;-3.80;99.90;;;;;;4181675;28;19925;-48
2022/03/10 04:54:51;;;;;;;;;;;-3.70;99.90;;;;;;4195288;28;19932;-48
2022/03/10 04:56:53;;;;;;;;;;;-3.60;99.90;;;;;;4196007;28;20020;-47
2022/03/10 04:58:55;;;;;;;;;;;-3.50;99.90;;;;;;4195587;28;19970;-47
2022/03/10 05:00:57;;;;;;;;;;;-3.60;99.90;;;;;;4195723;28;19924;-49
2022/03/10 05:02:59;;;;;;;;;;;-3.60;99.90;;;;;;4194316;28;20030;-50
2022/03/10 05:05:02;;;;;;;;;;;-3.70;99.90;;;;;;4196315;28;20003;-49
2022/03/10 05:07:05;;;;;;;;;;;-3.80;99.90;;;;;;4195719;28;19933;-51
2022/03/10 05:09:07;;;;;;;;;;;-3.90;99.90;;;;;;4195587;28;19928;-51
2022/03/10 05:11:09;;;;;;;;;;;-4.00;99.90;;;;;;4195855;28;20422;-50
2022/03/10 05:13:11;;;;;;;;;;;-4.00;99.90;;;;;;4194890;28;19928;-50
2022/03/10 05:15:16;;;;;;;;;;;-4.00;99.90;;;;;;4195069;28;19929;-51
2022/03/10 05:17:17;;;;;;;;;;;-4.00;99.90;;;;;;4195080;28;20437;-48
2022/03/10 05:19:19;;;;;;;;;;;-4.00;99.90;;;;;;4195350;28;19928;-47
2022/03/10 05:21:21;;;;;;;;;;;-4.10;99.90;;;;;;4195566;28;19979;-51
2022/03/10 05:23:23;;;;;;;;;;;-4.00;99.90;;;;;;4195402;28;20006;-50
2022/03/10 05:25:30;;;;;;;;;;;-4.00;99.90;;;;;;4195594;28;19946;-50
2022/03/10 05:27:32;;;;;;;;;;;-3.90;99.90;;;;;;4195239;28;19940;-49
2022/03/10 05:29:35;;;;;;;;;;;-3.80;99.90;;;;;;4185374;28;19924;-47
2022/03/10 05:31:38;;;;;;;;;;;-3.70;99.90;;;;;;4192301;28;19936;-51
2022/03/10 05:33:40;;;;;;;;;;;-3.70;99.90;;;;;;4195333;28;19928;-49
2022/03/10 05:35:41;;;;;;;;;;;-3.80;99.90;;;;;;4195548;28;19995;-50
2022/03/10 05:37:44;;;;;;;;;;;-3.70;99.90;;;;;;4195040;28;20304;-51
2022/03/10 05:39:46;;;;;;;;;;;-3.70;99.90;;;;;;4191698;28;19924;-51
2022/03/10 05:41:48;;;;;;;;;;;-3.80;99.90;;;;;;4194518;28;19971;-51
2022/03/10 05:43:50;;;;;;;;;;;-3.70;99.90;;;;;;4194137;28;20471;-50
2022/03/10 05:45:52;;;;;;;;;;;-3.70;99.90;;;;;;4193727;28;19986;-49
2022/03/10 05:47:55;;;;;;;;;;;-3.70;99.90;;;;;;4194164;28;19924;-50
2022/03/10 05:49:57;;;;;;;;;;;-3.70;99.90;;;;;;4192348;28;20015;-48
2022/03/10 05:51:59;;;;;;;;;;;-3.80;99.90;;;;;;4194846;28;19928;-48
2022/03/10 05:54:00;;;;;;;;;;;-3.80;99.90;;;;;;4195116;28;19932;-49
2022/03/10 05:56:03;;;;;;;;;;;-3.90;99.90;;;;;;4195126;28;19936;-51
2022/03/10 05:58:05;;;;;;;;;;;-3.90;99.90;;;;;;4194725;28;19933;-50
2022/03/10 06:00:08;;;;;;;;;;;-4.00;99.90;;;;;;4188613;28;19971;-50
2022/03/10 06:02:10;;;;;;;;;;;-4.00;99.90;;;;;;4194547;28;19928;-50
2022/03/10 06:04:12;;;;;;;;;;;-4.00;99.90;;;;;;4194854;28;19928;-49
2022/03/10 06:06:15;;;;;;;;;;;-4.00;99.90;;;;;;4193585;28;19990;-50
2022/03/10 06:08:16;;;;;;;;;;;-4.00;99.90;;;;;;4194803;28;19931;-49
2022/03/10 06:10:18;;;;;;;;;;;-3.90;99.90;;;;;;4193358;28;19929;-52
2022/03/10 06:12:21;;;;;;;;;;;-3.90;99.90;;;;;;4193435;28;19929;-47
2022/03/10 06:14:25;;;;;;;;;;;-3.80;99.90;;;;;;4194866;28;19974;-50
2022/03/10 06:16:27;;;;;;;;;;;-3.80;99.90;;;;;;4194118;28;19936;-50
2022/03/10 06:18:29;;;;;;;;;;;-3.80;99.90;;;;;;4194368;28;19932;-50
2022/03/10 06:20:33;;;;;;;;;;;-3.70;99.90;;;;;;4194195;28;19925;-51
2022/03/10 06:22:35;;;;;;;;;;;-3.70;99.90;;;;;;4194516;28;20350;-50
2022/03/10 06:24:37;;;;;;;;;;;-3.60;99.90;;;;;;4194627;28;19928;-49
2022/03/10 06:26:39;;;;;;;;;;;-3.50;99.90;;;;;;4193150;28;20357;-50
2022/03/10 06:28:43;;;;;;;;;;;-3.40;99.90;;;;;;4194012;28;20540;-50
2022/03/10 06:30:45;;;;;;;;;;;-3.30;99.90;;;;;;4194218;28;20430;-48
2022/03/10 06:32:46;;;;;;;;;;;-3.30;99.90;;;;;;4193264;28;19924;-50
2022/03/10 06:34:49;;;;;;;;;;;-3.30;99.90;;;;;;4194793;28;19928;-47
2022/03/10 06:36:51;;;;;;;;;;;-3.40;99.90;;;;;;4194382;28;19928;-49
2022/03/10 06:38:53;;;;;;;;;;;-3.30;99.90;;;;;;4194258;28;19929;-47
2022/03/10 06:40:55;;;;;;;;;;;-3.40;99.90;;;;;;4183522;28;19925;-49
2022/03/10 06:42:57;;;;;;;;;;;-3.30;99.90;;;;;;4191920;28;19929;-49
2022/03/10 06:44:59;;;;;;;;;;;-3.20;99.90;;;;;;4194202;28;19928;-47
2022/03/10 06:47:01;;;;;;;;;;;-3.10;99.90;;;;;;4193687;28;19992;-49
2022/03/10 06:49:02;;;;;;;;;;;-2.90;99.90;;;;;;4192708;28;19935;-49
2022/03/10 06:51:04;;;;;;;;;;;-2.70;99.90;;;;;;4193205;28;19925;-49
2022/03/10 06:53:06;;;;;;;;;;;-2.40;99.90;;;;;;4189946;28;20026;-50
2022/03/10 06:55:08;;;;;;;;;;;-2.30;99.90;;;;;;4193827;28;20301;-48
2022/03/10 06:57:12;;;;;;;;;;;-2.30;99.90;;;;;;4194171;28;20373;-47
2022/03/10 06:59:14;;;;;;;;;;;-2.30;99.90;;;;;;4191988;28;19929;-47
2022/03/10 07:01:16;;;;;;;;;;;-2.30;99.90;;;;;;4193106;28;19974;-50
2022/03/10 07:03:21;;;;;;;;;;;-2.40;99.90;;;;;;4193504;28;20411;-49
2022/03/10 07:05:23;;;;;;;;;;;-2.40;99.90;;;;;;4193025;28;20370;-50
2022/03/10 07:07:25;;;;;;;;;;;-2.40;99.90;;;;;;4193282;28;19925;-50
2022/03/10 07:09:27;;;;;;;;;;;-2.30;99.90;;;;;;4193484;28;19932;-50
2022/03/10 07:11:29;;;;;;;;;;;-2.20;99.90;;;;;;4192862;28;20488;-49
2022/03/10 07:13:34;;;;;;;;;;;-2.00;99.90;;;;;;4191805;28;20393;-51
2022/03/10 07:15:36;;;;;;;;;;;-1.90;99.90;;;;;;4194824;28;19928;-47
2022/03/10 07:17:38;;;;;;;;;;;-1.90;99.90;;;;;;4193251;28;20320;-49
2022/03/10 07:19:40;;;;;;;;;;;-1.90;99.90;;;;;;4193780;28;19931;-47
2022/03/10 07:21:42;;;;;;;;;;;-1.70;99.90;;;;;;4182998;28;19967;-48
2022/03/10 07:23:44;;;;;;;;;;;-1.60;99.90;;;;;;4193924;28;19928;-48
2022/03/10 07:25:46;;;;;;;;;;;-1.50;99.90;;;;;;4193423;28;19929;-49
2022/03/10 07:27:48;;;;;;;;;;;-1.40;99.90;;;;;;4193800;28;19928;-48
2022/03/10 07:29:50;;;;;;;;;;;-1.20;99.90;;;;;;4193508;28;20292;-45
2022/03/10 07:31:52;;;;;;;;;;;-1.10;99.90;;;;;;4193261;28;19924;-47
2022/03/10 07:33:54;;;;;;;;;;;-0.90;99.90;;;;;;4193371;28;20158;-50
2022/03/10 07:35:58;;;;;;;;;;;-0.80;99.90;;;;;;4193468;28;19936;-48
2022/03/10 07:38:00;;;;;;;;;;;-0.60;99.90;;;;;;4193383;28;19935;-49
2022/03/10 07:40:02;;;;;;;;;;;-0.60;99.90;;;;;;4192090;28;20459;-48
2022/03/10 07:42:04;;;;;;;;;;;-0.50;99.90;;;;;;4193613;28;19983;-48
2022/03/10 07:44:06;;;;;;;;;;;-0.40;99.90;;;;;;4193666;28;19935;-51
2022/03/10 07:46:08;;;;;;;;;;;-0.30;99.90;;;;;;4192636;28;19924;-50
2022/03/10 07:48:12;;;;;;;;;;;-0.20;99.90;;;;;;4193133;28;20456;-51
2022/03/10 07:50:14;;;;;;;;;;;-0.20;99.90;;;;;;4193354;28;19928;-50
2022/03/10 07:52:16;;;;;;;;;;;-0.10;99.90;;;;;;4193565;28;20035;-50
2022/03/10 07:54:18;;;;;;;;;;;0.00;99.90;;;;;;4193330;28;19925;-50
2022/03/10 07:56:20;;;;;;;;;;;0.20;99.90;;;;;;4193298;28;19925;-51
2022/03/10 07:58:23;;;;;;;;;;;0.40;99.90;;;;;;4193286;28;20336;-51
2022/03/10 08:00:25;;;;;;;;;;;0.60;99.90;;;;;;4192834;28;19928;-49
2022/03/10 08:02:27;;;;;;;;;;;0.70;99.90;;;;;;4193791;28;19924;-48
2022/03/10 08:04:29;;;;;;;;;;;0.90;99.90;;;;;;4193012;28;20428;-47
2022/03/10 08:06:31;;;;;;;;;;;1.00;99.90;;;;;;4193287;28;19925;-51
2022/03/10 08:08:33;;;;;;;;;;;1.30;99.90;;;;;;4193221;28;20423;-49
2022/03/10 08:10:35;;;;;;;;;;;1.40;99.90;;;;;;4192836;28;19991;-47
2022/03/10 08:12:36;;;;;;;;;;;1.50;99.90;;;;;;4192962;28;19925;-49
2022/03/10 08:14:38;;;;;;;;;;;1.60;99.90;;;;;;4193345;28;19924;-50
2022/03/10 08:16:40;;;;;;;;;;;1.70;99.90;;;;;;4193134;28;19928;-47
2022/03/10 08:18:45;;;;;;;;;;;1.90;99.90;;;;;;4192484;28;20121;-47
2022/03/10 08:20:47;;;;;;;;;;;2.10;99.90;;;;;;4193018;28;19928;-48
2022/03/10 08:22:49;;;;;;;;;;;2.30;99.90;;;;;;4192182;28;19929;-48
2022/03/10 08:24:51;;;;;;;;;;;2.40;99.90;;;;;;4175392;28;20396;-47
2022/03/10 08:26:53;;;;;;;;;;;2.50;99.90;;;;;;4193067;28;19932;-46
2022/03/10 08:28:55;;;;;;;;;;;2.80;99.90;;;;;;4192904;28;19928;-47
2022/03/10 08:30:56;;;;;;;;;;;2.90;99.90;;;;;;4192908;28;19924;-47
2022/03/10 08:32:58;;;;;;;;;;;3.10;99.90;;;;;;4191745;28;19985;-49
2022/03/10 08:35:00;;;;;;;;;;;3.20;99.90;;;;;;4191364;28;19931;-49
2022/03/10 08:37:03;;;;;;;;;;;3.40;99.90;;;;;;4194642;28;20115;-49
2022/03/10 08:39:05;;;;;;;;;;;3.60;99.90;;;;;;4176466;28;19932;-49
2022/03/10 08:41:06;;;;;;;;;;;3.70;99.90;;;;;;4192310;28;19978;-51
2022/03/10 08:43:12;;;;;;;;;;;3.80;99.90;;;;;;4192960;28;20079;-48
2022/03/10 08:45:14;;;;;;;;;;;3.90;99.90;;;;;;4189842;28;19977;-50
2022/03/10 08:47:16;;;;;;;;;;;4.20;99.90;;;;;;4192642;28;19956;-48
2022/03/10 08:49:18;;;;;;;;;;;4.40;99.90;;;;;;4192870;28;19928;-51
2022/03/10 08:51:20;;;;;;;;;;;4.50;99.90;;;;;;4195844;28;19928;-50
2022/03/10 08:53:22;;;;;;;;;;;4.50;99.90;;;;;;4195549;28;19925;-48
2022/03/10 08:55:24;;;;;;;;;;;4.60;99.90;;;;;;4195676;28;20281;-49
2022/03/10 08:57:26;;;;;;;;;;;4.70;99.90;;;;;;4196069;28;19932;-50
2022/03/10 08:59:28;;;;;;;;;;;4.80;99.80;;;;;;4194099;28;19924;-48
2022/03/10 09:01:30;;;;;;;;;;;4.90;99.90;;;;;;4195797;28;19974;-48
2022/03/10 09:03:32;;;;;;;;;;;5.10;98.80;;;;;;4195249;28;19935;-48
2022/03/10 09:05:36;;;;;;;;;;;5.40;99.40;;;;;;4195733;28;19925;-51
2022/03/10 09:07:38;;;;;;;;;;;5.60;99.40;;;;;;4195766;28;19975;-51
2022/03/10 09:09:42;;;;;;;;;;;5.90;98.30;;;;;;4195479;28;19925;-50
2022/03/10 09:11:44;;;;;;;;;;;6.10;98.10;;;;;;4195744;28;20026;-48
2022/03/10 09:13:49;;;;;;;;;;;6.30;98.00;;;;;;4193876;28;20399;-50
2022/03/10 09:15:51;;;;;;;;;;;6.50;97.70;;;;;;4195542;28;20343;-51
2022/03/10 09:17:53;;;;;;;;;;;6.70;96.70;;;;;;4195116;28;19924;-52
2022/03/10 09:19:55;;;;;;;;;;;6.80;96.50;;;;;;4195155;28;19929;-48
2022/03/10 09:21:59;;;;;;;;;;;7.00;95.00;;;;;;4195553;28;19955;-49
2022/03/10 09:24:03;;;;;;;;;;;7.10;93.80;;;;;;4195422;28;20375;-49
2022/03/10 09:26:05;;;;;;;;;;;7.20;91.80;;;;;;4195211;28;20022;-48
2022/03/10 09:28:07;;;;;;;;;;;7.30;91.10;;;;;;4195254;28;19932;-50
2022/03/10 09:30:10;;;;;;;;;;;7.50;91.40;;;;;;4195332;28;19924;-48
2022/03/10 09:32:12;;;;;;;;;;;7.80;91.20;;;;;;4195302;28;19936;-49
2022/03/10 09:34:13;;;;;;;;;;;8.10;90.60;;;;;;4195260;28;19986;-48
2022/03/10 09:36:15;;;;;;;;;;;8.40;90.70;;;;;;4195791;28;20433;-49
2022/03/10 09:38:17;;;;;;;;;;;8.60;86.10;;;;;;4195154;28;19928;-48
2022/03/10 09:40:19;;;;;;;;;;;8.70;86.40;;;;;;4194986;28;19932;-52
2022/03/10 09:42:23;;;;;;;;;;;8.90;85.40;;;;;;4195367;28;20339;-50
2022/03/10 09:44:26;;;;;;;;;;;9.00;83.00;;;;;;4194903;28;20274;-48
2022/03/10 09:46:29;;;;;;;;;;;9.10;81.30;;;;;;4193602;28;19924;-49
2022/03/10 09:48:32;;;;;;;;;;;9.60;86.00;;;;;;4210155;28;19928;-52
2022/03/10 09:50:33;;;;;;;;;;;9.90;78.70;;;;;;4191974;28;19928;-50
2022/03/10 09:52:36;;;;;;;;;;;10.10;84.80;;;;;;4194881;28;20356;-50
2022/03/10 09:54:38;;;;;;;;;;;10.40;84.70;;;;;;4194796;28;20389;-49
2022/03/10 09:56:41;;;;;;;;;;;10.80;84.50;;;;;;4195085;28;19932;-52
2022/03/10 09:58:43;;;;;;;;;;;11.20;77.30;;;;;;4194664;28;19968;-50
2022/03/10 10:00:44;;;;;;;;;;;11.60;83.50;;;;;;4194737;28;19975;-49
2022/03/10 10:02:46;;;;;;;;;;;11.90;80.80;;;;;;4194751;28;19928;-49
2022/03/10 10:04:49;;;;;;;;;;;12.10;80.40;;;;;;4193449;28;19983;-50
2022/03/10 10:07:01;;;;;;;;;;;12.60;75.80;;;;;;4194795;28;20213;-48
2022/03/10 10:09:03;;;;;;;;;;;12.30;74.70;;;;;;4194583;28;19924;-53
2022/03/10 10:11:05;;;;;;;;;;;12.60;76.00;;;;;;4178489;28;19925;-53
2022/03/10 10:13:07;;;;;;;;;;;12.30;73.90;;;;;;4193776;28;20253;-52
2022/03/10 10:15:10;;;;;;;;;;;12.70;74.00;;;;;;4194601;28;20269;-51
2022/03/10 10:17:12;;;;;;;;;;;13.00;74.30;;;;;;4195218;28;19929;-52
2022/03/10 10:19:16;;;;;;;;;;;12.70;70.10;;;;;;4193988;28;19944;-49
2022/03/10 10:21:21;;;;;;;;;;;12.50;67.50;;;;;;4194864;28;19930;-51
2022/03/10 10:23:24;;;;;;;;;;;12.80;68.50;;;;;;4193118;28;20395;-51
2022/03/10 10:25:27;;;;;;;;;;;13.00;66.60;;;;;;4194692;28;19928;-53
2022/03/10 10:27:46;;;;;;;;;;;13.10;63.90;;;;;;4194574;28;19928;-50
2022/03/10 10:29:58;;;;;;;;;;;13.50;68.10;;;;;;4194174;28;19925;-50
2022/03/10 10:32:00;;;;;;;;;;;13.20;64.00;;;;;;4193317;28;19986;-51
2022/03/10 10:34:29;;;;;;;;;;;13.50;64.50;;;;;;4178287;28;19925;-50
2022/03/10 10:36:32;;;;;;;;;;;13.80;69.00;;;;;;4178222;28;19960;-50
2022/03/10 10:38:34;;;;;;;;;;;13.50;61.60;;;;;;4194153;28;20396;-50
2022/03/10 10:40:36;;;;;;;;;;;14.00;65.40;;;;;;4194132;28;20462;-51
2022/03/10 10:42:39;;;;;;;;;;;14.00;62.80;;;;;;4190587;28;19978;-53
2022/03/10 10:44:41;;;;;;;;;;;14.10;64.00;;;;;;4194217;28;19974;-51
2022/03/10 10:46:49;;;;;;;;;;;14.10;62.00;;;;;;4193740;28;19978;-51
2022/03/10 10:48:51;;;;;;;;;;;13.90;61.30;;;;;;4194147;28;19973;-52
2022/03/10 10:50:53;;;;;;;;;;;13.80;61.90;;;;;;4193723;28;20589;-51
2022/03/10 10:52:55;;;;;;;;;;;13.80;59.10;;;;;;4194098;28;19975;-49
2022/03/10 10:55:03;;;;;;;;;;;14.30;60.60;;;;;;4194003;28;19978;-51
2022/03/10 10:57:06;;;;;;;;;;;14.70;62.40;;;;;;4181826;28;19948;-52
2022/03/10 10:59:08;;;;;;;;;;;14.10;58.50;;;;;;4194096;28;20342;-51
2022/03/10 11:01:25;;;;;;;;;;;14.00;56.70;;;;;;4193712;28;19972;-52
2022/03/10 11:03:36;;;;;;;;;;;14.50;60.90;;;;;;4193861;28;20277;-52
2022/03/10 11:05:38;;;;;;;;;;;14.80;58.20;;;;;;4194049;28;19934;-48
2022/03/10 11:07:41;;;;;;;;;;;15.10;58.60;;;;;;4193688;28;19939;-48
2022/03/10 11:09:43;;;;;;;;;;;15.50;56.00;;;;;;4193936;28;19989;-50
2022/03/10 11:11:45;;;;;;;;;;;15.50;56.60;;;;;;4193907;28;19974;-50
2022/03/10 11:13:48;;;;;;;;;;;15.30;59.90;;;;;;4193042;28;20080;-50
2022/03/10 11:15:51;;;;;;;;;;;14.70;53.50;;;;;;4193559;28;19928;-50
2022/03/10 11:17:53;;;;;;;;;;;15.10;60.40;;;;;;4193480;28;19924;-48
2022/03/10 11:19:56;;;;;;;;;;;15.70;61.40;;;;;;4193750;28;19924;-51
2022/03/10 11:22:04;;;;;;;;;;;16.10;57.10;;;;;;4193560;28;20396;-51
2022/03/10 11:24:25;;;;;;;;;;;15.50;53.80;;;;;;4190651;28;19993;-49
2022/03/10 11:26:31;;;;;;;;;;;15.20;55.50;;;;;;4193736;28;19960;-50
2022/03/10 11:28:33;;;;;;;;;;;15.10;53.50;;;;;;4193316;28;20365;-49
2022/03/10 11:30:35;;;;;;;;;;;15.60;55.30;;;;;;4193576;28;19924;-47
2022/03/10 11:32:39;;;;;;;;;;;15.80;53.40;;;;;;4193314;28;19978;-51
2022/03/10 11:34:45;;;;;;;;;;;16.00;56.70;;;;;;4193500;28;19975;-51
2022/03/10 11:36:47;;;;;;;;;;;15.00;52.20;;;;;;4193431;28;20011;-50
2022/03/10 11:38:51;;;;;;;;;;;14.70;52.50;;;;;;4193401;28;19993;-49
2022/03/10 11:40:56;;;;;;;;;;;15.10;56.10;;;;;;4193942;28;19974;-50
2022/03/10 11:42:59;;;;;;;;;;;15.60;55.40;;;;;;4193084;28;19978;-49
2022/03/10 11:45:05;;;;;;;;;;;16.00;54.30;;;;;;4193402;28;19928;-47
2022/03/10 11:47:14;;;;;;;;;;;16.70;57.20;;;;;;4193216;28;19966;-49
2022/03/10 11:49:16;;;;;;;;;;;16.20;54.90;;;;;;4192033;28;19928;-50
2022/03/10 11:51:18;;;;;;;;;;;15.90;56.50;;;;;;4193718;28;19928;-50
2022/03/10 11:53:20;;;;;;;;;;;16.10;53.30;;;;;;4190855;28;19928;-50
2022/03/10 11:55:23;;;;;;;;;;;15.90;52.50;;;;;;4192920;28;19964;-50
2022/03/10 11:57:25;;;;;;;;;;;16.60;56.20;;;;;;4189771;28;19992;-50
2022/03/10 11:59:36;;;;;;;;;;;16.60;55.40;;;;;;4191734;28;19935;-51